Terminal Aerodrome Forecast
Issued by NWS

Home | Current Version | Previous Version | Text Only | Print | Product List | Glossary On
Versions: 1 2 3 4 5 6 7 8 9 10 11 12 13 14 15
000
FTUS45 KABQ 042300
TAFAEG
TAF
KAEG 042340Z 0500/0524 12011KT P6SM VCSH SCT040 BKN100
      TEMPO 0500/0503 VRB20G30KT -TSRA OVC040CB
     FM050300 12011KT P6SM VCSH SCT050 BKN100
     FM050700 32006KT P6SM VCSH SCT050 BKN100
     FM051900 24013G23KT P6SM VCSH SCT040 BKN100=

USA.gov is the U.S. government's official web portal to all federal, state and local government web resources and services.